createdAt,value
2018-04-15T00:00:42.957Z,1.90
2018-04-15T00:03:13.519Z,1.63
2018-04-15T00:05:43.801Z,2.17
2018-04-15T00:08:14.215Z,1.80
2018-04-15T00:10:44.815Z,2.00
2018-04-15T00:13:15.710Z,1.97
2018-04-15T00:15:46.763Z,1.60
2018-04-15T00:18:17.173Z,1.87
2018-04-15T00:20:47.700Z,2.10
2018-04-15T00:23:18.139Z,2.03
2018-04-15T00:25:49.166Z,2.20
2018-04-15T00:28:19.629Z,1.90
2018-04-15T00:30:49.959Z,2.10
2018-04-15T00:33:20.739Z,2.00
2018-04-15T00:35:50.673Z,2.00
2018-04-15T00:38:20.754Z,1.93
2018-04-15T00:40:52.080Z,1.90
2018-04-15T00:43:22.108Z,2.00
2018-04-15T00:45:53.035Z,2.23
2018-04-15T00:48:23.095Z,2.40
2018-04-15T00:50:54.153Z,2.40
2018-04-15T00:53:24.918Z,2.10
2018-04-15T00:55:55.038Z,2.50
2018-04-15T00:58:25.279Z,2.30
2018-04-15T01:00:55.929Z,2.80
2018-04-15T01:03:26.214Z,2.50
2018-04-15T01:05:58.209Z,2.37
2018-04-15T01:08:28.300Z,2.67
2018-04-15T01:10:58.654Z,2.73
2018-04-15T01:13:29.913Z,2.40
2018-04-15T01:16:00.124Z,2.57
2018-04-15T01:18:31.312Z,2.23
2018-04-15T01:21:01.542Z,2.73
2018-04-15T01:23:31.761Z,2.53
2018-04-15T01:26:01.867Z,2.80
2018-04-15T01:28:32.923Z,2.40
2018-04-15T01:31:03.467Z,2.40
2018-04-15T01:33:33.803Z,2.90
2018-04-15T01:36:04.138Z,2.60
2018-04-15T01:38:34.395Z,2.50
2018-04-15T01:41:04.990Z,2.40
2018-04-15T01:43:35.419Z,2.37
2018-04-15T01:46:06.419Z,2.10
2018-04-15T01:48:36.670Z,2.40
2018-04-15T01:51:06.581Z,1.90
2018-04-15T01:53:37.573Z,1.93
2018-04-15T01:56:08.541Z,1.83
2018-04-15T01:58:38.821Z,1.97
2018-04-15T02:01:09.154Z,2.00
2018-04-15T02:03:39.143Z,1.80
2018-04-15T02:06:10.200Z,1.90
2018-04-15T02:08:41.201Z,2.00
2018-04-15T02:11:11.491Z,1.77
2018-04-15T02:13:43.230Z,1.70
2018-04-15T02:16:13.421Z,1.80
2018-04-15T02:18:43.715Z,1.73
2018-04-15T02:21:13.891Z,1.77
2018-04-15T02:23:44.220Z,2.17
2018-04-15T02:26:14.981Z,1.93
2018-04-15T02:28:46.667Z,2.10
2018-04-15T02:31:16.864Z,2.03
2018-04-15T02:33:47.334Z,1.80
2018-04-15T02:36:17.677Z,1.90
2018-04-15T02:38:48.563Z,1.67
2018-04-15T02:41:18.914Z,1.80
2018-04-15T02:43:49.551Z,1.87
2018-04-15T02:46:20.366Z,1.70
2018-04-15T02:48:50.571Z,1.90
2018-04-15T02:51:21.437Z,1.97
2018-04-15T02:53:52.049Z,2.00
2018-04-15T02:56:23.153Z,1.70
2018-04-15T02:58:53.627Z,1.80
2018-04-15T03:01:23.530Z,2.37
2018-04-15T03:03:54.030Z,1.80
2018-04-15T03:06:25.261Z,1.97
2018-04-15T03:08:55.297Z,1.80
2018-04-15T03:11:25.229Z,2.00
2018-04-15T03:13:55.461Z,1.93
2018-04-15T03:16:26.465Z,1.93
2018-04-15T03:18:56.425Z,1.97
2018-04-15T03:21:26.554Z,1.80
2018-04-15T03:23:57.491Z,2.00
2018-04-15T03:26:28.591Z,2.27
2018-04-15T03:28:58.710Z,2.13
2018-04-15T03:31:28.815Z,2.20
2018-04-15T03:33:59.251Z,2.00
2018-04-15T03:36:29.492Z,1.97
2018-04-15T03:38:59.553Z,2.30
2018-04-15T03:41:29.938Z,2.40
2018-04-15T03:44:00.291Z,2.37
2018-04-15T03:46:30.620Z,2.70
2018-04-15T03:49:01.001Z,2.50
2018-04-15T03:51:31.081Z,2.20
2018-04-15T03:54:01.230Z,2.20
2018-04-15T03:56:31.675Z,2.37
2018-04-15T03:59:02.378Z,2.20
2018-04-15T04:01:33.461Z,2.43
2018-04-15T04:04:04.100Z,2.10
2018-04-15T04:06:34.770Z,2.40
2018-04-15T04:09:05.063Z,2.00
2018-04-15T04:11:35.232Z,2.00
2018-04-15T04:14:06.608Z,2.23
2018-04-15T04:16:37.504Z,2.13
2018-04-15T04:21:23.315Z,2.40
2018-04-15T04:25:07.602Z,1.83
2018-04-15T04:27:39.296Z,2.00
2018-04-15T04:30:09.939Z,1.93
2018-04-15T04:32:39.934Z,2.43
2018-04-15T04:35:10.059Z,2.03
2018-04-15T04:37:40.546Z,1.80
2018-04-15T04:40:11.094Z,2.00
2018-04-15T04:42:41.037Z,2.00
2018-04-15T04:45:11.230Z,1.80
2018-04-15T04:47:41.260Z,1.60
2018-04-15T04:50:11.929Z,2.00
2018-04-15T04:52:42.243Z,1.83
2018-04-15T04:55:12.618Z,1.87
2018-04-15T04:57:42.898Z,1.80
2018-04-15T05:00:14.231Z,1.70
2018-04-15T05:02:44.382Z,1.60
2018-04-15T05:05:16.024Z,1.70
2018-04-15T05:07:46.053Z,1.57
2018-04-15T05:10:17.139Z,1.60
2018-04-15T05:12:47.814Z,1.70
2018-04-15T05:15:18.689Z,1.70
2018-04-15T05:17:49.025Z,1.47
2018-04-15T05:20:20.322Z,1.43
2018-04-15T05:22:50.220Z,1.40
2018-04-15T05:25:21.633Z,1.60
2018-04-15T05:27:51.693Z,1.40
2018-04-15T05:30:22.096Z,1.60
2018-04-15T05:32:52.643Z,1.67
2018-04-15T05:35:22.875Z,1.60
2018-04-15T05:37:53.082Z,1.50
2018-04-15T05:40:23.629Z,1.70
2018-04-15T05:42:53.933Z,1.50
2018-04-15T05:45:24.002Z,1.37
2018-04-15T05:47:54.919Z,1.33
2018-04-15T05:50:25.581Z,1.60
2018-04-15T05:52:56.230Z,1.53
2018-04-15T05:55:26.467Z,1.57
2018-04-15T05:57:56.625Z,1.30
2018-04-15T06:00:27.177Z,1.20
2018-04-15T06:02:58.028Z,1.30
2018-04-15T06:05:29.017Z,1.60
2018-04-15T06:08:00.224Z,1.40
2018-04-15T06:10:30.268Z,1.50
2018-04-15T06:13:00.380Z,1.20
2018-04-15T06:15:31.260Z,1.40
2018-04-15T06:18:02.280Z,1.90
2018-04-15T06:20:33.331Z,3.00
2018-04-15T06:23:03.783Z,3.33
2018-04-15T06:25:35.429Z,2.33
2018-04-15T06:28:06.524Z,1.47
2018-04-15T06:30:36.573Z,1.60
2018-04-15T06:33:06.750Z,1.43
2018-04-15T06:35:37.555Z,1.43
2018-04-15T06:38:08.466Z,1.23
2018-04-15T06:40:38.639Z,1.30
2018-04-15T06:43:09.372Z,1.10
2018-04-15T06:45:40.112Z,1.13
2018-04-15T06:48:10.116Z,1.03
2018-04-15T06:50:40.478Z,1.40
2018-04-15T06:53:10.825Z,1.30
2018-04-15T06:55:41.065Z,1.00
2018-04-15T06:58:11.999Z,1.30
2018-04-15T07:00:43.481Z,1.30
2018-04-15T07:03:13.413Z,1.40
2018-04-15T07:05:43.524Z,1.17
2018-04-15T07:08:13.836Z,1.30
2018-04-15T07:10:44.499Z,1.43
2018-04-15T07:13:14.905Z,1.47
2018-04-15T07:15:44.981Z,1.20
2018-04-15T07:18:15.822Z,1.40
2018-04-15T07:20:46.903Z,1.33
2018-04-15T07:23:16.948Z,1.20
2018-04-15T07:25:48.459Z,1.57
2018-04-15T07:28:18.539Z,1.50
2018-04-15T07:30:49.807Z,1.33
2018-04-15T07:33:20.608Z,1.43
2018-04-15T07:35:50.832Z,1.77
2018-04-15T07:38:21.141Z,1.93
2018-04-15T07:40:51.330Z,1.70
2018-04-15T07:43:21.541Z,1.77
2018-04-15T07:45:52.108Z,2.13
2018-04-15T07:48:22.182Z,2.20
2018-04-15T07:50:52.318Z,1.70
2018-04-15T07:53:22.294Z,1.70
2018-04-15T07:55:52.471Z,1.63
2018-04-15T07:58:22.404Z,1.53
2018-04-15T08:00:52.526Z,1.20
2018-04-15T08:03:22.688Z,1.30
2018-04-15T08:05:54.774Z,1.30
2018-04-15T08:08:24.848Z,1.47
2018-04-15T08:10:55.024Z,1.30
2018-04-15T08:13:25.177Z,1.13
2018-04-15T08:15:58.410Z,1.20
2018-04-15T08:18:29.258Z,1.40
2018-04-15T08:21:00.755Z,1.10
2018-04-15T08:23:33.421Z,1.23
2018-04-15T08:26:03.681Z,1.00
2018-04-15T08:28:34.043Z,1.17
2018-04-15T08:32:23.633Z,1.00
2018-04-15T08:34:53.904Z,1.17
2018-04-15T08:37:25.648Z,1.20
2018-04-15T08:39:56.820Z,1.20
2018-04-15T08:42:28.968Z,1.10
2018-04-15T08:45:00.143Z,1.03
2018-04-15T08:47:31.912Z,1.47
2018-04-15T08:50:03.950Z,1.23
2018-04-15T08:52:35.370Z,1.20
2018-04-15T08:55:06.029Z,1.10
2018-04-15T08:57:36.173Z,1.20
2018-04-15T09:00:07.493Z,1.10
2018-04-15T09:02:37.684Z,1.20
2018-04-15T09:05:08.112Z,1.17
2018-04-15T09:07:39.273Z,1.30
2018-04-15T09:10:09.638Z,1.20
2018-04-15T09:12:40.161Z,1.40
2018-04-15T09:15:11.236Z,1.30
2018-04-15T09:17:41.746Z,1.47
2018-04-15T09:20:12.823Z,1.40
2018-04-15T09:22:43.137Z,1.20
2018-04-15T09:25:13.691Z,1.40
2018-04-15T09:27:43.821Z,1.30
2018-04-15T09:30:15.109Z,1.13
2018-04-15T09:32:45.647Z,1.27
2018-04-15T09:35:15.862Z,1.40
2018-04-15T09:37:46.764Z,1.47
2018-04-15T09:40:17.325Z,1.20
2018-04-15T09:42:47.922Z,1.33
2018-04-15T09:45:18.221Z,1.10
2018-04-15T09:47:49.158Z,1.10
2018-04-15T09:50:19.498Z,1.50
2018-04-15T09:52:49.925Z,1.40
2018-04-15T09:55:20.142Z,0.97
2018-04-15T09:57:50.477Z,1.40
2018-04-15T10:00:20.797Z,1.00
2018-04-15T10:02:50.950Z,1.30
2018-04-15T10:05:21.840Z,1.40
2018-04-15T10:07:53.192Z,1.10
2018-04-15T10:10:24.374Z,1.10
2018-04-15T10:12:55.225Z,1.20
2018-04-15T10:15:27.665Z,1.10
2018-04-15T10:17:57.934Z,1.30
2018-04-15T10:20:28.224Z,1.30
2018-04-15T10:23:01.672Z,1.20
2018-04-15T10:25:32.911Z,1.10
2018-04-15T10:28:04.588Z,1.00
2018-04-15T10:30:35.155Z,1.13
2018-04-15T10:33:05.543Z,1.27
2018-04-15T10:35:36.072Z,1.20
2018-04-15T10:38:06.266Z,1.20
2018-04-15T10:40:36.611Z,1.00
2018-04-15T10:43:07.312Z,1.17
2018-04-15T10:45:38.241Z,1.20
2018-04-15T10:48:09.232Z,1.07
2018-04-15T10:50:39.523Z,1.20
2018-04-15T10:53:09.630Z,1.10
2018-04-15T10:55:40.872Z,1.37
2018-04-15T10:58:11.932Z,1.30
2018-04-15T11:00:42.086Z,1.40
2018-04-15T11:03:13.831Z,1.17
2018-04-15T11:05:44.310Z,1.50
2018-04-15T11:08:16.987Z,1.20
2018-04-15T11:10:48.452Z,1.37
2018-04-15T11:13:19.699Z,1.10
2018-04-15T11:15:50.663Z,1.03
2018-04-15T11:18:22.144Z,1.37
2018-04-15T11:20:52.324Z,1.30
2018-04-15T11:23:24.928Z,1.50
2018-04-15T11:25:56.834Z,1.30
2018-04-15T11:28:28.918Z,1.57
2018-04-15T11:31:00.498Z,1.00
2018-04-15T11:33:30.467Z,1.27
2018-04-15T11:36:02.438Z,1.17
2018-04-15T11:38:33.369Z,1.20
2018-04-15T11:41:04.379Z,1.00
2018-04-15T11:43:35.368Z,1.63
2018-04-15T11:46:06.734Z,1.27
2018-04-15T11:48:37.300Z,1.10
2018-04-15T11:51:08.661Z,0.97
2018-04-15T11:53:39.322Z,1.43
2018-04-15T11:56:10.356Z,0.90
2018-04-15T11:58:40.453Z,1.17
2018-04-15T12:01:11.142Z,1.07
2018-04-15T12:03:41.719Z,1.13
2018-04-15T12:06:12.024Z,1.27
2018-04-15T12:08:42.511Z,1.80
2018-04-15T12:11:12.877Z,1.30
2018-04-15T12:13:43.063Z,0.87
2018-04-15T12:16:13.766Z,1.40
2018-04-15T12:18:43.997Z,1.20
2018-04-15T12:21:15.722Z,1.30
2018-04-15T12:23:46.491Z,1.40
2018-04-15T12:26:17.313Z,1.27
2018-04-15T12:28:47.566Z,1.20
2018-04-15T12:31:18.060Z,1.30
2018-04-15T12:33:48.353Z,1.10
2018-04-15T12:36:18.769Z,1.30
2018-04-15T12:38:50.625Z,1.10
2018-04-15T12:41:21.756Z,1.40
2018-04-15T12:43:54.133Z,1.50
2018-04-15T12:46:24.267Z,1.70
2018-04-15T12:48:55.155Z,1.27
2018-04-15T12:51:26.384Z,1.30
2018-04-15T12:53:57.497Z,1.30
2018-04-15T12:56:28.008Z,1.10
2018-04-15T12:58:58.591Z,0.90
2018-04-15T13:01:29.601Z,1.10
2018-04-15T13:04:01.165Z,1.10
2018-04-15T13:06:33.081Z,1.10
2018-04-15T13:09:03.832Z,1.30
2018-04-15T13:11:34.506Z,1.10
2018-04-15T13:14:05.314Z,1.40
2018-04-15T13:16:36.503Z,1.47
2018-04-15T13:19:07.029Z,1.57
2018-04-15T13:21:38.657Z,1.30
2018-04-15T13:24:09.816Z,1.20
2018-04-15T13:26:40.049Z,1.33
2018-04-15T13:29:10.812Z,0.87
2018-04-15T13:31:41.494Z,1.10
2018-04-15T13:34:11.955Z,1.00
2018-04-15T13:36:43.771Z,0.90
2018-04-15T13:39:14.316Z,0.90
2018-04-15T13:41:44.400Z,1.10
2018-04-15T13:44:14.651Z,1.20
2018-04-15T13:46:48.199Z,1.10
2018-04-15T13:49:31.356Z,0.87
2018-04-15T13:52:02.938Z,1.33
2018-04-15T13:54:33.665Z,1.20
2018-04-15T13:57:04.775Z,1.10
2018-04-15T13:59:35.122Z,1.50
2018-04-15T14:02:08.068Z,1.20
2018-04-15T14:04:39.047Z,1.33
2018-04-15T14:07:10.334Z,1.37
2018-04-15T14:09:41.413Z,1.53
2018-04-15T14:12:12.131Z,1.17
2018-04-15T14:14:42.564Z,1.23
2018-04-15T14:17:13.048Z,1.07
2018-04-15T14:19:44.350Z,1.20
2018-04-15T14:22:14.740Z,1.37
2018-04-15T14:24:46.797Z,1.03
2018-04-15T14:27:18.959Z,1.00
2018-04-15T14:29:49.417Z,1.30
2018-04-15T14:32:20.709Z,1.43
2018-04-15T14:34:51.089Z,1.27
2018-04-15T14:37:22.016Z,1.40
2018-04-15T14:39:53.149Z,1.30
2018-04-15T14:42:23.452Z,1.37
2018-04-15T14:44:53.955Z,1.60
2018-04-15T14:47:24.592Z,1.60
2018-04-15T14:49:55.000Z,2.37
2018-04-15T14:52:25.280Z,1.60
2018-04-15T14:54:55.929Z,1.77
2018-04-15T14:57:26.863Z,1.00
2018-04-15T14:59:58.070Z,1.40
2018-04-15T15:02:35.516Z,1.33
2018-04-15T15:05:06.290Z,2.07
2018-04-15T15:07:36.723Z,1.67
2018-04-15T15:10:08.000Z,1.40
2018-04-15T15:12:38.931Z,1.40
2018-04-15T15:15:09.500Z,1.73
2018-04-15T15:17:39.680Z,1.70
2018-04-15T15:20:09.901Z,1.40
2018-04-15T15:22:40.880Z,1.40
2018-04-15T15:25:11.437Z,1.37
2018-04-15T15:27:41.958Z,1.50
2018-04-15T15:30:16.411Z,1.50
2018-04-15T15:32:53.570Z,1.20
2018-04-15T15:35:24.906Z,1.30
2018-04-15T15:37:55.138Z,1.30
2018-04-15T15:40:25.531Z,1.30
2018-04-15T15:42:56.112Z,1.73
2018-04-15T15:45:26.416Z,1.53
2018-04-15T15:47:57.075Z,1.30
2018-04-15T15:50:27.873Z,2.20
2018-04-15T15:52:58.234Z,2.50
2018-04-15T15:55:29.398Z,1.90
2018-04-15T15:58:06.512Z,1.60
2018-04-15T16:00:36.903Z,1.30
2018-04-15T16:03:07.406Z,2.43
2018-04-15T16:05:38.086Z,1.90
2018-04-15T16:08:09.466Z,1.97
2018-04-15T16:10:40.758Z,1.40
2018-04-15T16:13:12.541Z,1.33
2018-04-15T16:15:43.855Z,1.43
2018-04-15T16:18:14.337Z,1.80
2018-04-15T16:20:45.818Z,1.57
2018-04-15T16:23:17.826Z,2.30
2018-04-15T16:25:48.969Z,1.70
2018-04-15T16:28:20.379Z,2.37
2018-04-15T16:30:51.114Z,1.50
2018-04-15T16:33:25.409Z,1.40
2018-04-15T16:35:56.578Z,1.70
2018-04-15T16:38:27.330Z,1.60
2018-04-15T16:40:57.933Z,1.47
2018-04-15T16:43:28.382Z,1.70
2018-04-15T16:45:59.186Z,1.70
2018-04-15T16:48:29.563Z,1.50
2018-04-15T16:51:01.104Z,1.63
2018-04-15T16:53:32.078Z,1.67
2018-04-15T16:56:02.514Z,1.60
2018-04-15T16:58:33.252Z,1.40
2018-04-15T17:01:04.048Z,1.80
2018-04-15T17:03:34.459Z,2.00
2018-04-15T17:06:04.848Z,2.20
2018-04-15T17:08:36.059Z,1.83
2018-04-15T17:11:07.016Z,1.60
2018-04-15T17:13:37.526Z,1.77
2018-04-15T17:16:08.202Z,1.80
2018-04-15T17:18:38.490Z,1.33
2018-04-15T17:21:08.828Z,1.50
2018-04-15T17:23:39.554Z,1.70
2018-04-15T17:26:10.426Z,2.10
2018-04-15T17:28:41.770Z,1.70
2018-04-15T17:31:12.575Z,1.50
2018-04-15T17:33:46.880Z,1.60
2018-04-15T17:36:18.608Z,1.47
2018-04-15T17:38:51.462Z,1.73
2018-04-15T17:41:22.471Z,2.03
2018-04-15T17:43:54.090Z,1.47
2018-04-15T17:46:26.348Z,1.60
2018-04-15T17:49:00.045Z,1.90
2018-04-15T17:51:31.589Z,2.00
2018-04-15T17:54:01.936Z,2.10
2018-04-15T17:56:33.095Z,2.10
2018-04-15T17:59:06.251Z,1.67
2018-04-15T18:01:36.620Z,1.63
2018-04-15T18:04:06.824Z,1.90
2018-04-15T18:06:40.052Z,2.30
2018-04-15T18:09:10.410Z,2.80
2018-04-15T18:11:42.921Z,2.60
2018-04-15T18:14:14.918Z,2.00
2018-04-15T18:16:47.084Z,2.70
2018-04-15T18:19:32.609Z,3.57
2018-04-15T18:22:04.873Z,3.50
2018-04-15T18:24:39.066Z,2.73
2018-04-15T18:27:10.835Z,3.10
2018-04-15T18:29:42.877Z,3.13
2018-04-15T18:32:14.675Z,2.63
2018-04-15T18:34:45.388Z,2.80
2018-04-15T18:37:16.855Z,2.93
2018-04-15T18:39:47.420Z,3.33
2018-04-15T18:42:17.818Z,3.10
2018-04-15T18:44:48.849Z,2.63
2018-04-15T18:47:20.549Z,3.30
2018-04-15T18:49:53.789Z,2.30
2018-04-15T18:52:25.232Z,2.70
2018-04-15T18:54:56.199Z,2.40
2018-04-15T18:57:27.134Z,3.77
2018-04-15T18:59:59.502Z,3.53
2018-04-15T19:02:31.157Z,3.73
2018-04-15T19:05:02.174Z,3.57
2018-04-15T19:07:32.520Z,3.13
2018-04-15T19:10:03.789Z,3.30
2018-04-15T19:12:34.437Z,3.80
2018-04-15T19:15:05.619Z,2.90
2018-04-15T19:17:36.049Z,3.60
2018-04-15T19:20:06.634Z,2.80
2018-04-15T19:22:37.602Z,2.40
2018-04-15T19:25:08.833Z,2.50
2018-04-15T19:27:40.245Z,2.30
2018-04-15T19:30:12.003Z,2.17
2018-04-15T19:32:43.038Z,2.30
2018-04-15T19:35:14.368Z,2.70
2018-04-15T19:37:45.617Z,2.50
2018-04-15T19:40:15.867Z,2.50
2018-04-15T19:42:46.637Z,2.80
2018-04-15T19:45:17.934Z,2.80
2018-04-15T19:47:49.161Z,2.93
2018-04-15T19:50:19.637Z,2.23
2018-04-15T19:52:50.752Z,2.50
2018-04-15T19:55:21.150Z,2.37
2018-04-15T19:57:51.749Z,2.73
2018-04-15T20:00:22.380Z,2.30
2018-04-15T20:02:52.720Z,2.43
2018-04-15T20:05:25.112Z,2.63
2018-04-15T20:07:55.355Z,2.30
2018-04-15T20:10:25.479Z,2.90
2018-04-15T20:12:55.807Z,2.60
2018-04-15T20:15:25.988Z,2.70
2018-04-15T20:17:56.655Z,2.30
2018-04-15T20:20:26.970Z,2.23
2018-04-15T20:22:57.033Z,2.50
2018-04-15T20:25:27.073Z,2.80
2018-04-15T20:27:57.893Z,2.57
2018-04-15T20:30:28.445Z,2.50
2018-04-15T20:33:00.261Z,2.70
2018-04-15T20:35:30.746Z,2.23
2018-04-15T20:38:01.900Z,2.30
2018-04-15T20:40:32.919Z,2.43
2018-04-15T20:43:03.025Z,2.20
2018-04-15T20:45:34.320Z,2.53
2018-04-15T20:48:04.429Z,2.07
2018-04-15T20:50:34.800Z,2.30
2018-04-15T20:53:05.956Z,2.20
2018-04-15T20:55:36.748Z,2.50
2018-04-15T20:58:07.986Z,2.60
2018-04-15T21:00:38.175Z,2.50
2018-04-15T21:03:10.062Z,2.70
2018-04-15T21:05:40.494Z,2.63
2018-04-15T21:08:10.651Z,3.50
2018-04-15T21:10:41.235Z,3.37
2018-04-15T21:13:11.247Z,2.70
2018-04-15T21:15:41.426Z,2.63
2018-04-15T21:18:11.848Z,3.10
2018-04-15T21:20:42.442Z,2.60
2018-04-15T21:23:12.609Z,2.60
2018-04-15T21:25:42.840Z,2.60
2018-04-15T21:28:13.759Z,2.90
2018-04-15T21:30:43.792Z,2.87
2018-04-15T21:33:14.841Z,2.47
2018-04-15T21:35:46.119Z,2.80
2018-04-15T21:38:17.426Z,2.83
2018-04-15T21:40:48.301Z,2.90
2018-04-15T21:43:18.467Z,2.63
2018-04-15T21:45:50.089Z,2.70
2018-04-15T21:48:20.447Z,2.70
2018-04-15T21:50:50.862Z,3.13
2018-04-15T21:53:21.120Z,2.80
2018-04-15T21:55:52.110Z,3.40
2018-04-15T21:58:22.285Z,3.20
2018-04-15T22:00:53.441Z,2.90
2018-04-15T22:03:24.429Z,3.10
2018-04-15T22:05:55.268Z,2.77
2018-04-15T22:08:25.489Z,3.07
2018-04-15T22:10:55.951Z,3.13
2018-04-15T22:13:26.902Z,2.63
2018-04-15T22:15:57.839Z,2.87
2018-04-15T22:18:28.825Z,3.10
2018-04-15T22:20:59.082Z,2.47
2018-04-15T22:23:30.635Z,2.77
2018-04-15T22:26:00.870Z,2.83
2018-04-15T22:28:32.021Z,2.60
2018-04-15T22:31:02.997Z,2.87
2018-04-15T22:33:33.298Z,2.80
2018-04-15T22:36:04.238Z,2.50
2018-04-15T22:38:34.546Z,2.50
2018-04-15T22:41:05.502Z,2.60
2018-04-15T22:43:35.944Z,2.40
2018-04-15T22:46:06.025Z,2.40
2018-04-15T22:48:41.336Z,2.60
2018-04-15T22:51:11.436Z,2.30
2018-04-15T22:53:41.861Z,2.20
2018-04-15T22:56:12.527Z,2.60
2018-04-15T22:58:46.822Z,2.37
2018-04-15T23:01:17.290Z,2.50
2018-04-15T23:03:48.208Z,2.80
2018-04-15T23:06:18.101Z,2.70
2018-04-15T23:08:48.005Z,3.20
2018-04-15T23:11:19.193Z,2.90
2018-04-15T23:13:50.425Z,2.60
2018-04-15T23:16:22.378Z,3.10
2018-04-15T23:18:52.571Z,3.00
2018-04-15T23:21:22.766Z,2.50
2018-04-15T23:23:53.077Z,2.70
2018-04-15T23:26:23.071Z,2.30
2018-04-15T23:28:53.814Z,2.60
2018-04-15T23:31:25.024Z,2.63
2018-04-15T23:33:55.144Z,2.60
2018-04-15T23:36:25.150Z,2.60
2018-04-15T23:38:55.121Z,2.67
2018-04-15T23:41:26.118Z,2.90
2018-04-15T23:43:56.187Z,2.43
2018-04-15T23:46:27.420Z,2.60
2018-04-15T23:48:57.540Z,2.37
2018-04-15T23:51:27.452Z,2.50
2018-04-15T23:53:58.362Z,2.63
2018-04-15T23:56:28.674Z,2.77
2018-04-15T23:58:59.505Z,2.20
